Terminal Aerodrome Forecast
Issued by NWS Amarillo, TX

Home | Current Version | Previous Version | Text Only | Print | Product List | Glossary On
Versions: 1 2 3 4 5 6 7 8 9 10 11 12 13 14 15 16 17 18 19 20 21 22 23 24 25 26 27
000
FTUS44 KAMA 011800 AAA
TAFAMA
TAF AMD
KAMA 011809Z 0118/0218 35022G32KT P6SM SCT025 SCT050
     FM020000 02010KT P6SM SCT050
     FM021200 19016KT P6SM SCT025=

USA.gov is the U.S. government's official web portal to all federal, state and local government web resources and services.